Time;durP1;ratioP1;P1;durP2;ratioP2;P2;SDS_P1;SDS_P2;PMS_P1;PMS_P2;Temp;Humidity;BMP_temperature;BMP_pressure;BME280_temperature;BME280_humidity;BME280_pressure;Samples;Min_cycle;Max_cycle;Signal;HPM_P1;HPM_P2
2022/01/28 00:04:52;;;;;;;35.33;21.05;;;4.60;99.90;;;;;;4998180;28;20204;-91
2022/01/28 00:07:18;;;;;;;28.92;18.10;;;4.70;99.90;;;;;;5012734;28;20208;-91
2022/01/28 00:09:44;;;;;;;31.93;19.27;;;4.70;99.90;;;;;;5012495;28;20568;-91
2022/01/28 00:12:11;;;;;;;27.13;18.37;;;4.80;99.90;;;;;;5012931;28;20283;-91
2022/01/28 00:38:52;;;;;;;31.23;19.48;;;5.20;99.90;;;;;;4997525;28;20248;-90
2022/01/28 00:41:18;;;;;;;27.63;19.15;;;5.20;99.90;;;;;;5012543;28;20204;-90
2022/01/28 00:43:44;;;;;;;28.77;18.27;;;5.20;99.90;;;;;;5014740;28;20207;-90
2022/01/28 00:46:10;;;;;;;26.30;17.73;;;5.20;99.90;;;;;;5027780;28;20482;-91
2022/01/28 00:48:36;;;;;;;29.70;18.23;;;5.20;99.90;;;;;;5030793;28;20471;-91
2022/01/28 00:51:02;;;;;;;31.02;20.38;;;5.20;99.90;;;;;;5028714;28;20191;-90
2022/01/28 00:53:28;;;;;;;27.17;18.15;;;5.20;99.90;;;;;;5013181;28;20176;-91
2022/01/28 00:55:54;;;;;;;31.73;20.67;;;5.20;99.90;;;;;;5012400;28;20218;-91
2022/01/28 00:58:24;;;;;;;32.30;19.27;;;5.20;99.90;;;;;;4995516;28;20176;-91
2022/01/28 01:00:49;;;;;;;31.90;20.08;;;5.20;99.90;;;;;;5011904;28;20270;-91
2022/01/28 01:03:15;;;;;;;29.40;17.93;;;5.20;99.90;;;;;;4995698;28;20206;-91
2022/01/28 01:05:46;;;;;;;26.20;18.15;;;5.20;99.90;;;;;;5011924;28;20415;-90
2022/01/28 01:08:12;;;;;;;27.20;17.88;;;5.20;99.90;;;;;;5011421;28;20843;-91
2022/01/28 01:10:38;;;;;;;29.60;19.03;;;5.20;99.90;;;;;;5011948;28;20215;-91
2022/01/28 01:13:04;;;;;;;28.95;17.77;;;5.20;99.90;;;;;;5011663;28;20207;-91
2022/01/28 01:15:36;;;;;;;27.90;17.48;;;5.20;99.90;;;;;;5011618;28;20210;-91
2022/01/28 01:18:10;;;;;;;28.45;18.15;;;5.20;99.90;;;;;;5011809;28;20547;-90
2022/01/28 01:23:30;;;;;;;31.48;18.45;;;5.10;99.90;;;;;;4996345;28;20156;-91
2022/01/28 01:28:28;;;;;;;31.47;18.07;;;5.10;99.90;;;;;;4998054;28;20215;-90
2022/01/28 01:30:56;;;;;;;30.88;17.85;;;5.00;99.90;;;;;;5013007;28;20465;-90
2022/01/28 01:33:22;;;;;;;25.13;16.65;;;5.00;99.90;;;;;;5014778;28;20176;-90
2022/01/28 01:35:48;;;;;;;27.90;17.63;;;5.00;99.90;;;;;;5011997;28;20755;-90
2022/01/28 01:38:14;;;;;;;27.10;17.20;;;5.00;99.90;;;;;;4994602;28;20645;-91
2022/01/28 01:40:52;;;;;;;25.52;16.70;;;4.90;99.90;;;;;;5010767;28;20199;-90
2022/01/28 01:53:48;;;;;;;29.85;18.30;;;4.80;99.90;;;;;;4995932;28;20246;-90
2022/01/28 01:56:15;;;;;;;30.83;17.27;;;4.80;99.90;;;;;;5011380;28;20203;-91
2022/01/28 01:58:42;;;;;;;26.58;17.00;;;4.80;99.90;;;;;;5011951;28;20502;-91
2022/01/28 02:01:07;;;;;;;31.67;18.15;;;4.80;99.90;;;;;;5018632;28;20310;-91
2022/01/28 02:03:33;;;;;;;27.17;16.67;;;4.70;99.90;;;;;;5011230;28;20211;-91
2022/01/28 02:06:01;;;;;;;26.07;17.47;;;4.70;99.90;;;;;;5011022;28;20234;-91
2022/01/28 02:08:30;;;;;;;25.33;16.85;;;4.70;99.90;;;;;;5010924;28;20516;-91
2022/01/28 02:10:59;;;;;;;26.60;17.55;;;4.70;99.90;;;;;;5010834;28;20208;-91
2022/01/28 02:13:26;;;;;;;29.67;16.77;;;4.70;99.90;;;;;;5011520;28;20399;-91
2022/01/28 02:15:57;;;;;;;23.92;15.38;;;4.70;99.90;;;;;;5011063;28;20223;-91
2022/01/28 02:18:24;;;;;;;27.05;16.27;;;4.70;99.90;;;;;;5011747;28;20626;-90
2022/01/28 02:20:51;;;;;;;25.42;15.00;;;4.60;99.90;;;;;;5014954;28;20261;-91
2022/01/28 02:23:17;;;;;;;26.58;16.38;;;4.60;99.90;;;;;;5010857;28;20199;-91
2022/01/28 02:25:44;;;;;;;28.08;15.27;;;4.60;99.90;;;;;;5010673;28;20636;-91
2022/01/28 02:28:12;;;;;;;25.63;15.77;;;4.60;99.90;;;;;;5010968;28;20302;-91
2022/01/28 02:30:38;;;;;;;28.48;15.07;;;4.60;99.90;;;;;;5010988;28;20203;-91
2022/01/28 02:33:13;;;;;;;24.00;14.10;;;4.60;99.90;;;;;;5010770;28;20203;-90
2022/01/28 02:35:42;;;;;;;20.92;13.38;;;4.70;99.90;;;;;;5017911;28;20464;-91
2022/01/28 02:38:09;;;;;;;21.85;14.30;;;4.70;99.90;;;;;;5013632;28;20203;-91
2022/01/28 02:40:35;;;;;;;24.90;13.88;;;4.70;99.90;;;;;;5010534;28;20294;-91
2022/01/28 02:43:16;;;;;;;21.75;15.60;;;4.70;99.90;;;;;;5010688;28;20179;-91
2022/01/28 02:45:43;;;;;;;27.42;15.25;;;4.80;99.90;;;;;;5010675;28;20218;-90
2022/01/28 02:48:17;;;;;;;22.63;13.80;;;4.80;99.90;;;;;;5011052;28;20577;-91
2022/01/28 02:51:00;;;;;;;21.52;14.60;;;4.90;99.90;;;;;;5016862;28;20188;-91
2022/01/28 02:53:49;;;;;;;22.98;14.30;;;4.90;99.90;;;;;;5025954;28;20178;-91
2022/01/28 02:56:32;;;;;;;22.73;13.30;;;4.90;99.90;;;;;;5014079;28;20537;-91
2022/01/28 02:58:58;;;;;;;25.70;14.65;;;5.00;99.90;;;;;;5014247;28;20203;-91
2022/01/28 03:01:26;;;;;;;20.65;13.23;;;5.00;99.90;;;;;;4999026;28;20203;-91
2022/01/28 03:03:55;;;;;;;23.50;14.23;;;5.00;99.90;;;;;;5014069;28;20180;-91
2022/01/28 03:06:22;;;;;;;26.38;14.20;;;5.10;99.90;;;;;;4999627;28;20199;-90
2022/01/28 03:08:57;;;;;;;24.70;15.13;;;5.10;99.90;;;;;;5013764;28;20784;-90
2022/01/28 03:11:42;;;;;;;21.42;14.27;;;5.10;99.90;;;;;;5014454;28;20299;-91
2022/01/28 03:14:21;;;;;;;24.70;14.48;;;5.10;99.90;;;;;;5014012;28;20287;-90
2022/01/28 03:17:04;;;;;;;23.58;14.65;;;5.10;99.90;;;;;;5014043;28;20179;-91
2022/01/28 03:19:43;;;;;;;20.52;14.00;;;5.10;99.90;;;;;;5014118;28;20187;-91
2022/01/28 03:22:09;;;;;;;21.15;14.15;;;5.20;99.90;;;;;;5014135;28;20183;-91
2022/01/28 03:24:37;;;;;;;19.50;13.93;;;5.20;99.90;;;;;;5014070;28;20266;-91
2022/01/28 03:27:10;;;;;;;25.52;14.70;;;5.20;99.90;;;;;;5013743;28;20195;-91
2022/01/28 03:29:36;;;;;;;20.50;14.05;;;5.20;99.90;;;;;;5015828;28;20270;-90
2022/01/28 03:32:02;;;;;;;21.80;14.53;;;5.20;99.90;;;;;;5025941;28;20661;-91
2022/01/28 03:34:28;;;;;;;22.23;13.35;;;5.20;99.90;;;;;;5013572;28;20195;-90
2022/01/28 03:36:56;;;;;;;22.53;15.30;;;5.20;99.90;;;;;;5013562;28;20188;-91
2022/01/28 03:39:22;;;;;;;22.90;14.13;;;5.20;99.90;;;;;;5013516;28;20274;-91
2022/01/28 03:41:48;;;;;;;24.60;13.97;;;5.20;99.90;;;;;;5013391;28;20666;-91
2022/01/28 03:44:14;;;;;;;21.30;13.37;;;5.20;99.90;;;;;;5013655;28;20901;-91
2022/01/28 03:46:39;;;;;;;20.25;11.95;;;5.20;99.90;;;;;;5013392;28;20853;-91
2022/01/28 03:49:05;;;;;;;18.67;11.83;;;5.20;99.90;;;;;;5013812;28;20239;-91
2022/01/28 03:51:31;;;;;;;22.60;13.63;;;5.30;99.90;;;;;;5015903;28;20445;-91
2022/01/28 03:53:59;;;;;;;18.13;12.38;;;5.30;99.90;;;;;;5012725;28;20459;-91
2022/01/28 03:56:25;;;;;;;21.90;13.80;;;5.30;99.90;;;;;;4997015;28;20214;-90
2022/01/28 03:58:51;;;;;;;24.20;14.77;;;5.30;99.90;;;;;;5012931;28;20168;-90
2022/01/28 04:01:24;;;;;;;27.27;16.47;;;5.30;99.90;;;;;;5012992;28;20254;-90
2022/01/28 04:11:51;;;;;;;19.90;14.18;;;5.20;99.90;;;;;;4997973;28;20696;-91
2022/01/28 04:19:39;;;;;;;27.35;16.45;;;5.10;99.90;;;;;;5014406;28;20203;-91
2022/01/28 04:22:05;;;;;;;26.38;16.23;;;5.10;99.90;;;;;;5009737;28;20188;-90
2022/01/28 04:24:31;;;;;;;25.60;15.70;;;5.20;99.90;;;;;;5024090;28;20218;-90
2022/01/28 04:26:58;;;;;;;23.63;15.40;;;5.10;99.90;;;;;;5027949;28;20415;-91
2022/01/28 04:29:24;;;;;;;24.48;15.68;;;5.10;99.90;;;;;;5031122;28;20420;-91
2022/01/28 04:31:50;;;;;;;22.80;13.52;;;5.10;99.90;;;;;;5029568;28;20188;-91
2022/01/28 04:34:17;;;;;;;22.87;14.37;;;5.10;99.90;;;;;;5012783;28;20687;-91
2022/01/28 04:37:11;;;;;;;22.10;14.98;;;5.10;99.90;;;;;;5012071;28;20419;-91
2022/01/28 04:45:30;;;;;;;25.23;14.98;;;5.10;99.90;;;;;;4990059;28;20306;-91
2022/01/28 04:48:12;;;;;;;22.77;14.30;;;5.00;99.90;;;;;;5012506;28;20223;-90
2022/01/28 04:51:06;;;;;;;22.23;13.13;;;5.00;99.90;;;;;;5012083;28;20215;-91
2022/01/28 04:56:45;;;;;;;26.67;15.82;;;5.00;99.90;;;;;;4999415;28;20200;-90
2022/01/28 05:02:15;;;;;;;25.52;14.15;;;5.00;99.90;;;;;;5014940;28;20660;-91
2022/01/28 05:28:11;;;;;;;18.65;10.90;;;5.10;99.90;;;;;;5016536;28;20679;-91
2022/01/28 05:30:37;;;;;;;15.88;11.07;;;5.10;99.90;;;;;;5006932;28;20200;-91
2022/01/28 05:33:03;;;;;;;17.70;11.40;;;5.20;99.90;;;;;;5012257;28;20226;-89
2022/01/28 05:35:30;;;;;;;13.03;8.67;;;5.20;99.90;;;;;;5013032;28;20782;-91
2022/01/28 05:37:56;;;;;;;16.73;10.23;;;5.20;99.90;;;;;;5017308;28;20196;-91
2022/01/28 05:40:22;;;;;;;11.03;8.13;;;5.20;99.90;;;;;;5022315;28;20246;-90
2022/01/28 05:42:51;;;;;;;12.90;8.93;;;5.30;99.90;;;;;;5015431;28;20478;-90
2022/01/28 05:45:16;;;;;;;13.30;7.80;;;5.30;99.90;;;;;;4998648;28;20199;-91
2022/01/28 05:47:42;;;;;;;10.33;7.80;;;5.30;99.90;;;;;;5023620;28;20278;-89
2022/01/28 05:50:08;;;;;;;11.83;7.23;;;5.30;99.90;;;;;;5013105;28;20434;-91
2022/01/28 05:52:35;;;;;;;8.63;7.10;;;5.40;99.90;;;;;;5013267;28;20233;-91
2022/01/28 05:55:01;;;;;;;16.10;8.18;;;5.40;99.90;;;;;;5004315;28;20214;-91
2022/01/28 05:57:27;;;;;;;10.67;7.13;;;5.50;99.90;;;;;;5013248;28;20186;-91
2022/01/28 05:59:53;;;;;;;8.45;6.57;;;5.50;99.90;;;;;;5013933;28;20529;-91
2022/01/28 06:02:19;;;;;;;10.50;8.10;;;5.50;99.90;;;;;;5013269;28;20278;-91
2022/01/28 06:04:45;;;;;;;9.00;6.30;;;5.60;99.90;;;;;;5012595;28;20421;-91
2022/01/28 06:07:12;;;;;;;7.35;6.00;;;5.60;99.90;;;;;;5006652;28;20236;-91
2022/01/28 06:09:38;;;;;;;7.78;5.55;;;5.60;99.90;;;;;;5012388;28;20242;-90
2022/01/28 06:12:04;;;;;;;6.28;5.10;;;5.70;99.90;;;;;;5012752;28;20236;-90
2022/01/28 06:14:29;;;;;;;7.22;5.10;;;5.70;99.90;;;;;;5018968;28;20187;-91
2022/01/28 06:16:55;;;;;;;9.10;5.83;;;5.70;99.90;;;;;;5018446;28;20194;-91
2022/01/28 06:19:21;;;;;;;8.07;4.77;;;5.70;99.90;;;;;;5009759;28;20692;-91
2022/01/28 06:21:47;;;;;;;8.50;5.27;;;5.70;99.90;;;;;;5008381;28;20445;-90
2022/01/28 06:24:14;;;;;;;5.90;4.37;;;5.80;99.90;;;;;;5013339;28;20489;-91
2022/01/28 06:26:41;;;;;;;5.68;4.13;;;5.80;99.90;;;;;;5008787;28;20187;-91
2022/01/28 06:29:07;;;;;;;6.70;4.47;;;5.80;99.90;;;;;;5019077;28;20219;-90
2022/01/28 06:31:33;;;;;;;5.67;4.00;;;5.80;99.90;;;;;;5025619;28;20225;-91
2022/01/28 06:33:59;;;;;;;6.20;4.15;;;5.80;99.90;;;;;;5016904;28;20387;-91
2022/01/28 06:36:25;;;;;;;9.73;4.40;;;5.80;99.90;;;;;;5013740;28;20214;-90
2022/01/28 06:38:51;;;;;;;5.90;4.50;;;5.80;99.90;;;;;;5012052;28;20981;-91
2022/01/28 06:41:17;;;;;;;5.57;4.00;;;5.90;99.90;;;;;;5013208;28;20441;-91
2022/01/28 06:43:43;;;;;;;5.53;4.00;;;5.90;99.90;;;;;;4997804;28;20199;-91
2022/01/28 06:46:12;;;;;;;6.30;4.55;;;5.90;99.90;;;;;;5011867;28;20210;-90
2022/01/28 06:48:38;;;;;;;6.05;4.25;;;5.90;99.90;;;;;;5012359;28;20240;-90
2022/01/28 06:51:04;;;;;;;5.30;4.13;;;5.90;99.90;;;;;;5011965;28;20711;-90
2022/01/28 06:53:31;;;;;;;6.00;4.30;;;5.90;99.90;;;;;;5017129;28;20417;-90
2022/01/28 06:55:56;;;;;;;7.20;4.70;;;5.90;99.90;;;;;;5009021;28;20427;-91
2022/01/28 06:58:23;;;;;;;9.00;5.47;;;5.90;99.90;;;;;;5011126;28;20237;-91
2022/01/28 07:00:49;;;;;;;8.30;6.05;;;5.90;99.90;;;;;;5006222;28;20218;-91
2022/01/28 07:03:15;;;;;;;7.25;5.68;;;5.90;99.90;;;;;;5010482;28;20187;-90
2022/01/28 07:05:41;;;;;;;6.97;5.27;;;6.00;99.90;;;;;;5011234;28;20691;-91
2022/01/28 07:08:08;;;;;;;8.82;5.97;;;6.00;99.90;;;;;;5008950;28;20587;-90
2022/01/28 07:10:34;;;;;;;7.18;5.50;;;6.00;99.90;;;;;;4997419;28;20717;-92
2022/01/28 07:13:00;;;;;;;10.05;5.60;;;6.00;99.90;;;;;;5007199;28;20646;-91
2022/01/28 07:15:28;;;;;;;9.43;6.32;;;6.10;99.90;;;;;;5010138;28;20293;-91
2022/01/28 07:17:58;;;;;;;6.78;4.75;;;6.10;99.90;;;;;;5007947;28;20179;-91
2022/01/28 07:20:24;;;;;;;9.23;6.20;;;6.10;99.90;;;;;;5013304;28;20215;-91
2022/01/28 07:22:50;;;;;;;9.83;6.70;;;6.10;99.90;;;;;;5019838;28;20275;-91
2022/01/28 07:25:16;;;;;;;7.28;4.80;;;6.20;99.90;;;;;;5012892;28;20489;-90
2022/01/28 07:27:42;;;;;;;4.35;3.65;;;6.20;99.90;;;;;;5012897;28;20222;-91
2022/01/28 07:30:09;;;;;;;5.73;4.60;;;6.20;99.90;;;;;;5014614;28;20191;-91
2022/01/28 07:32:35;;;;;;;4.53;3.60;;;6.30;99.90;;;;;;5003898;28;20188;-90
2022/01/28 07:35:01;;;;;;;3.60;3.13;;;6.40;99.90;;;;;;5012500;28;20563;-91
2022/01/28 07:37:27;;;;;;;3.53;2.70;;;6.50;99.90;;;;;;5010752;28;20187;-91
2022/01/28 07:39:53;;;;;;;6.77;4.00;;;6.60;99.90;;;;;;5013598;28;20226;-91
2022/01/28 07:42:19;;;;;;;5.67;4.33;;;6.60;99.90;;;;;;4995947;28;20566;-90
2022/01/28 07:44:45;;;;;;;4.97;3.93;;;6.70;99.90;;;;;;5011850;28;20443;-91
2022/01/28 07:47:11;;;;;;;4.82;4.32;;;6.70;99.90;;;;;;5003614;28;20464;-91
2022/01/28 07:49:37;;;;;;;8.10;5.03;;;6.80;99.90;;;;;;5019726;28;20696;-91
2022/01/28 07:52:03;;;;;;;7.30;4.40;;;6.90;99.90;;;;;;5010685;28;20421;-91
2022/01/28 07:54:29;;;;;;;9.15;5.18;;;6.90;99.90;;;;;;5012264;28;20201;-91
2022/01/28 07:56:55;;;;;;;7.93;5.13;;;6.90;99.90;;;;;;5019446;28;20179;-91
2022/01/28 07:59:21;;;;;;;6.97;6.20;;;6.90;99.90;;;;;;5012654;28;20953;-90
2022/01/28 08:01:48;;;;;;;5.00;4.20;;;6.90;99.90;;;;;;5014159;28;20179;-91
2022/01/28 08:04:14;;;;;;;6.63;3.78;;;6.90;99.90;;;;;;5012561;28;20274;-91
2022/01/28 08:06:40;;;;;;;22.00;15.25;;;7.00;99.90;;;;;;5013657;28;20641;-92
2022/01/28 08:09:06;;;;;;;5.30;4.43;;;7.10;99.90;;;;;;5014799;28;20280;-91
2022/01/28 08:11:34;;;;;;;3.92;3.42;;;7.10;99.90;;;;;;5018359;28;20553;-91
2022/01/28 08:13:59;;;;;;;2.97;2.65;;;7.20;99.90;;;;;;5014227;28;20226;-92
2022/01/28 08:16:25;;;;;;;4.07;3.40;;;7.30;99.90;;;;;;5015422;28;20203;-91
2022/01/28 08:18:51;;;;;;;4.93;3.72;;;7.60;99.90;;;;;;5010191;28;20179;-91
2022/01/28 08:21:17;;;;;;;7.60;5.30;;;7.70;99.90;;;;;;5015194;28;20245;-92
2022/01/28 08:23:43;;;;;;;5.32;3.38;;;7.80;99.90;;;;;;5014368;28;20183;-92
2022/01/28 08:26:11;;;;;;;4.97;4.10;;;7.90;99.90;;;;;;5012423;28;20218;-91
2022/01/28 08:28:38;;;;;;;10.32;5.00;;;7.90;99.90;;;;;;5015325;28;20211;-91
2022/01/28 08:31:04;;;;;;;11.18;7.25;;;7.90;99.90;;;;;;5010694;28;20371;-92
2022/01/28 08:33:31;;;;;;;9.20;5.67;;;8.00;99.90;;;;;;5011082;28;20644;-92
2022/01/28 08:35:57;;;;;;;18.98;9.52;;;8.00;99.90;;;;;;5017669;28;20816;-92
2022/01/28 08:38:29;;;;;;;16.50;10.23;;;8.10;99.90;;;;;;5009428;28;20262;-91
2022/01/28 08:40:58;;;;;;;8.90;6.18;;;8.80;99.90;;;;;;5014058;28;20571;-91
2022/01/28 08:43:25;;;;;;;8.93;6.53;;;9.80;99.90;;;;;;5018033;28;20189;-92
2022/01/28 08:45:51;;;;;;;5.18;3.22;;;10.90;99.90;;;;;;5033919;28;20203;-91
2022/01/28 08:48:17;;;;;;;3.60;3.10;;;12.00;99.90;;;;;;5018224;28;20237;-91
2022/01/28 08:50:43;;;;;;;5.60;5.00;;;12.90;99.90;;;;;;5012685;28;20215;-92
2022/01/28 08:53:10;;;;;;;3.80;3.30;;;13.50;99.90;;;;;;5016841;28;20179;-92
2022/01/28 08:55:37;;;;;;;2.90;2.67;;;13.90;99.90;;;;;;5010795;28;20459;-89
2022/01/28 08:58:04;;;;;;;4.10;2.53;;;14.10;99.70;;;;;;5027142;28;20444;-89
2022/01/28 09:00:30;;;;;;;3.37;3.00;;;14.20;98.70;;;;;;5011760;28;20471;-90
2022/01/28 09:02:55;;;;;;;3.50;3.20;;;14.20;98.50;;;;;;5014316;28;20424;-92
2022/01/28 09:05:21;;;;;;;3.10;2.80;;;14.20;97.60;;;;;;5010101;28;21127;-92
2022/01/28 09:07:48;;;;;;;2.57;2.37;;;14.30;96.50;;;;;;5006368;28;20214;-93
2022/01/28 09:10:18;;;;;;;2.80;1.97;;;14.40;95.80;;;;;;5005973;28;20574;-92
2022/01/28 09:15:37;;;;;;;2.50;2.30;;;14.40;94.60;;;;;;5011633;28;20876;-93
2022/01/28 09:18:03;;;;;;;1.93;1.73;;;14.50;94.50;;;;;;5008667;28;20515;-91
2022/01/28 09:20:31;;;;;;;2.10;1.63;;;14.60;93.70;;;;;;5009922;28;20601;-93
2022/01/28 09:22:58;;;;;;;3.10;1.47;;;14.90;92.50;;;;;;5018247;28;20432;-92
2022/01/28 09:25:24;;;;;;;2.70;1.67;;;15.00;91.70;;;;;;5019885;28;21067;-92
2022/01/28 09:27:50;;;;;;;3.60;1.60;;;15.00;90.40;;;;;;5027426;28;20449;-92
2022/01/28 09:30:15;;;;;;;1.63;1.53;;;14.60;89.60;;;;;;5010293;28;20511;-92
2022/01/28 09:32:41;;;;;;;1.43;1.33;;;14.50;90.10;;;;;;5009305;28;20455;-91
2022/01/28 09:35:08;;;;;;;3.00;1.40;;;14.60;89.50;;;;;;5017398;28;20265;-92
2022/01/28 09:37:34;;;;;;;3.03;1.47;;;14.60;88.90;;;;;;5008994;28;20442;-92
2022/01/28 09:40:01;;;;;;;4.20;1.90;;;14.70;88.10;;;;;;5008526;28;20487;-92
2022/01/28 09:42:31;;;;;;;4.00;1.20;;;14.70;87.00;;;;;;5024796;28;20552;-92
2022/01/28 09:44:59;;;;;;;9.10;1.30;;;14.70;86.90;;;;;;5008977;28;20495;-92
2022/01/28 09:47:25;;;;;;;3.20;1.27;;;14.50;87.10;;;;;;5007581;28;20423;-92
2022/01/28 09:49:51;;;;;;;16.40;2.00;;;14.40;86.20;;;;;;5009533;28;20465;-92
2022/01/28 09:52:19;;;;;;;2.90;1.30;;;14.30;87.50;;;;;;5009756;28;20470;-91
2022/01/28 09:54:46;;;;;;;2.47;1.47;;;14.20;85.50;;;;;;5007996;28;20547;-91
2022/01/28 09:57:18;;;;;;;5.90;1.50;;;14.30;85.50;;;;;;5021376;28;20454;-91
2022/01/28 09:59:44;;;;;;;5.63;1.43;;;14.50;84.00;;;;;;5009953;28;20460;-91
2022/01/28 10:02:10;;;;;;;3.53;1.20;;;14.60;83.50;;;;;;5007444;28;20983;-91
2022/01/28 10:04:37;;;;;;;5.30;1.10;;;14.60;83.10;;;;;;5009652;28;20453;-92
2022/01/28 10:07:17;;;;;;;8.60;1.23;;;14.80;83.30;;;;;;5009366;28;20437;-93
2022/01/28 10:09:54;;;;;;;1.00;0.90;;;14.80;82.00;;;;;;5009837;28;20479;-91
2022/01/28 10:12:27;;;;;;;9.80;1.60;;;14.80;82.10;;;;;;5010693;28;21000;-91
2022/01/28 10:15:01;;;;;;;9.40;1.20;;;14.60;81.60;;;;;;5012730;28;20483;-92
2022/01/28 10:17:50;;;;;;;6.50;2.63;;;14.40;82.10;;;;;;5018200;28;20432;-92
2022/01/28 10:20:16;;;;;;;5.03;1.10;;;14.30;82.90;;;;;;5006040;28;20556;-93
2022/01/28 10:23:01;;;;;;;5.90;2.20;;;14.10;82.10;;;;;;5010327;28;20436;-89
2022/01/28 10:25:26;;;;;;;2.43;1.43;;;13.90;82.30;;;;;;5008835;28;20495;-93
2022/01/28 10:28:03;;;;;;;1.57;0.90;;;13.70;82.40;;;;;;5009866;28;20508;-91
2022/01/28 10:30:30;;;;;;;13.00;2.60;;;13.60;83.40;;;;;;5025945;28;20293;-90
2022/01/28 10:33:11;;;;;;;10.23;1.77;;;13.50;82.70;;;;;;5021203;28;20425;-89
2022/01/28 10:35:39;;;;;;;8.33;1.90;;;13.20;82.30;;;;;;5003978;28;20457;-89
2022/01/28 10:38:08;;;;;;;3.43;0.90;;;13.00;83.80;;;;;;5011473;28;20449;-91
2022/01/28 10:40:34;;;;;;;3.33;1.20;;;12.70;84.10;;;;;;5011024;28;20468;-90
2022/01/28 10:43:01;;;;;;;7.90;1.80;;;12.40;85.00;;;;;;5010488;28;20176;-89
2022/01/28 10:45:31;;;;;;;8.37;4.20;;;12.30;85.80;;;;;;5008061;28;20499;-90
2022/01/28 10:47:59;;;;;;;16.67;1.77;;;12.20;85.30;;;;;;5014475;28;20476;-89
2022/01/28 10:50:32;;;;;;;7.75;1.50;;;12.00;84.60;;;;;;5013167;28;20264;-91
2022/01/28 10:53:04;;;;;;;14.77;2.10;;;11.70;85.00;;;;;;5008291;28;20179;-90
2022/01/28 10:55:33;;;;;;;14.93;2.45;;;11.40;86.00;;;;;;5007580;28;20249;-90
2022/01/28 10:58:02;;;;;;;6.65;1.60;;;11.30;86.30;;;;;;5007481;28;20183;-89
2022/01/28 11:00:32;;;;;;;9.77;1.30;;;11.10;87.50;;;;;;5013042;28;20242;-90
2022/01/28 11:03:00;;;;;;;10.95;1.65;;;11.10;87.30;;;;;;5009576;28;20187;-90
2022/01/28 11:05:29;;;;;;;9.32;1.50;;;11.10;88.10;;;;;;5014644;28;20214;-91
2022/01/28 11:07:56;;;;;;;4.13;1.45;;;11.10;89.00;;;;;;5012412;28;20223;-90
2022/01/28 11:10:23;;;;;;;10.48;1.90;;;11.10;88.60;;;;;;4995749;28;20207;-89
2022/01/28 11:12:50;;;;;;;7.65;1.80;;;11.10;86.90;;;;;;5011768;28;20272;-90
2022/01/28 11:15:16;;;;;;;12.20;1.77;;;10.90;86.40;;;;;;5013518;28;20641;-91
2022/01/28 11:17:42;;;;;;;4.07;1.60;;;10.70;86.80;;;;;;5030387;28;20494;-91
2022/01/28 11:20:12;;;;;;;4.88;1.35;;;10.50;87.00;;;;;;5024971;28;20457;-90
2022/01/28 11:22:53;;;;;;;5.75;1.60;;;10.30;87.30;;;;;;5012859;28;20640;-91
2022/01/28 11:25:36;;;;;;;5.15;1.40;;;10.10;87.60;;;;;;5012117;28;20714;-90
2022/01/28 11:28:12;;;;;;;4.70;1.60;;;9.90;87.40;;;;;;5026358;28;20225;-90
2022/01/28 11:31:09;;;;;;;3.72;1.50;;;9.80;88.60;;;;;;5014784;28;20211;-90
2022/01/28 11:33:47;;;;;;;4.45;1.90;;;9.80;89.40;;;;;;5008693;28;20203;-91
2022/01/28 11:36:14;;;;;;;5.25;1.60;;;9.90;89.40;;;;;;5013996;28;20231;-91
2022/01/28 11:38:43;;;;;;;5.18;1.70;;;9.90;87.50;;;;;;5010684;28;20179;-90
2022/01/28 11:41:14;;;;;;;3.15;1.52;;;9.90;87.30;;;;;;5009023;28;20222;-91
2022/01/28 11:43:52;;;;;;;5.00;1.58;;;9.90;87.50;;;;;;5009367;28;20182;-90
2022/01/28 11:46:31;;;;;;;5.05;1.55;;;9.90;88.10;;;;;;5010896;28;20274;-91
2022/01/28 11:49:02;;;;;;;6.25;2.00;;;10.00;88.40;;;;;;5025356;28;20211;-91
2022/01/28 11:51:38;;;;;;;8.07;2.10;;;10.00;87.50;;;;;;5008705;28;20199;-91
2022/01/28 11:54:08;;;;;;;10.23;2.72;;;10.10;88.50;;;;;;5007553;28;20229;-91
2022/01/28 11:56:38;;;;;;;8.75;1.63;;;10.20;88.20;;;;;;5009970;28;20315;-90
2022/01/28 11:59:04;;;;;;;6.85;1.42;;;10.40;86.80;;;;;;5007561;28;20187;-90
2022/01/28 12:01:39;;;;;;;3.60;1.50;;;10.50;86.90;;;;;;5018066;28;20266;-91
2022/01/28 12:04:24;;;;;;;3.85;1.48;;;10.60;87.10;;;;;;5016508;28;20535;-91
2022/01/28 12:07:02;;;;;;;5.05;1.60;;;10.60;87.30;;;;;;5005349;28;20218;-90
2022/01/28 12:09:30;;;;;;;4.20;1.42;;;10.60;87.80;;;;;;5010179;28;20239;-92
2022/01/28 12:11:57;;;;;;;2.70;1.50;;;10.60;88.50;;;;;;5014710;28;20641;-91
2022/01/28 12:17:33;;;;;;;2.08;1.60;;;10.30;89.10;;;;;;5013604;28;20194;-90
2022/01/28 12:20:15;;;;;;;7.93;1.70;;;10.10;90.00;;;;;;5024700;28;20202;-91
2022/01/28 12:23:24;;;;;;;13.13;1.60;;;10.00;90.30;;;;;;5013477;28;20581;-90
2022/01/28 12:25:54;;;;;;;3.58;1.60;;;9.90;90.70;;;;;;5022898;28;20203;-91
2022/01/28 12:28:21;;;;;;;1.92;1.10;;;9.80;90.90;;;;;;5010280;28;20224;-92
2022/01/28 12:31:03;;;;;;;5.65;3.75;;;9.80;91.00;;;;;;5015125;28;20255;-91
2022/01/28 12:33:32;;;;;;;7.32;2.30;;;9.90;91.20;;;;;;5011767;28;20210;-91
2022/01/28 12:36:00;;;;;;;3.97;1.33;;;10.00;91.40;;;;;;5006783;28;20199;-91
2022/01/28 12:38:31;;;;;;;4.93;1.30;;;10.00;90.80;;;;;;5008172;28;20286;-90
2022/01/28 12:41:05;;;;;;;4.25;1.70;;;10.00;90.60;;;;;;5011526;28;20229;-91
2022/01/28 12:43:32;;;;;;;8.02;1.38;;;10.00;90.80;;;;;;5020875;28;20278;-91
2022/01/28 12:46:12;;;;;;;7.30;1.70;;;9.90;91.10;;;;;;5012245;28;20203;-91
2022/01/28 12:48:52;;;;;;;3.65;1.40;;;9.90;90.70;;;;;;5011350;28;20215;-91
2022/01/28 12:51:21;;;;;;;7.30;1.65;;;9.80;91.00;;;;;;5011461;28;20210;-91
2022/01/28 12:53:53;;;;;;;2.90;1.25;;;9.70;90.70;;;;;;5015892;28;20190;-91
2022/01/28 12:56:31;;;;;;;5.13;1.40;;;9.60;90.90;;;;;;5015341;28;20243;-92
2022/01/28 12:58:58;;;;;;;2.67;1.25;;;9.60;90.90;;;;;;5010932;28;20253;-92
2022/01/28 13:01:24;;;;;;;15.02;1.98;;;9.60;90.70;;;;;;5015581;28;20208;-90
2022/01/28 13:04:08;;;;;;;7.97;2.22;;;9.50;90.90;;;;;;5015057;28;20282;-91
2022/01/28 13:09:10;;;;;;;5.07;2.13;;;9.50;90.90;;;;;;5011281;28;20230;-91
2022/01/28 13:11:59;;;;;;;12.40;2.72;;;9.40;90.60;;;;;;5007608;28;20616;-91
2022/01/28 13:14:33;;;;;;;2.85;1.20;;;9.40;90.70;;;;;;5008165;28;20632;-91
2022/01/28 13:17:01;;;;;;;6.78;1.55;;;9.30;90.80;;;;;;5010916;28;20214;-90
2022/01/28 13:19:28;;;;;;;4.43;1.23;;;9.20;91.10;;;;;;5016395;28;20286;-90
2022/01/28 13:21:55;;;;;;;7.97;1.75;;;9.20;91.30;;;;;;5028481;28;20251;-91
2022/01/28 13:24:29;;;;;;;18.42;1.67;;;9.20;91.10;;;;;;5020934;28;20179;-90
2022/01/28 13:27:07;;;;;;;4.85;1.80;;;9.20;91.10;;;;;;5026973;28;20186;-91
2022/01/28 13:29:40;;;;;;;7.35;1.20;;;9.20;90.90;;;;;;5006822;28;20651;-91
2022/01/28 13:32:13;;;;;;;3.22;1.10;;;9.20;90.90;;;;;;5010731;28;20253;-91
2022/01/28 13:34:52;;;;;;;5.35;1.90;;;9.10;91.00;;;;;;5012339;28;20214;-90
2022/01/28 13:37:38;;;;;;;8.05;1.40;;;9.10;91.40;;;;;;5010468;28;20644;-91
2022/01/28 13:40:08;;;;;;;2.38;1.33;;;9.00;91.50;;;;;;5015105;28;20772;-91
2022/01/28 13:42:35;;;;;;;2.20;1.20;;;9.00;91.40;;;;;;5005849;28;20187;-91
2022/01/28 13:45:05;;;;;;;3.33;1.45;;;9.00;91.40;;;;;;5011961;28;20210;-91
2022/01/28 13:47:51;;;;;;;1.80;1.15;;;8.90;91.60;;;;;;5009860;28;20189;-91
2022/01/28 13:50:28;;;;;;;2.08;1.10;;;8.90;91.50;;;;;;5009769;28;20225;-90
2022/01/28 13:53:34;;;;;;;1.90;1.35;;;8.80;91.70;;;;;;5001957;28;20187;-91
2022/01/28 13:56:00;;;;;;;3.35;1.42;;;8.80;91.80;;;;;;5020820;28;20211;-91
2022/01/28 13:58:26;;;;;;;2.63;1.13;;;8.70;92.00;;;;;;5015146;28;20274;-91
2022/01/28 14:00:53;;;;;;;7.57;1.50;;;8.70;92.10;;;;;;5010074;28;20529;-90
2022/01/28 14:03:27;;;;;;;4.25;1.52;;;8.60;92.20;;;;;;5011363;28;20190;-91
2022/01/28 14:06:01;;;;;;;4.88;1.17;;;8.50;92.20;;;;;;5010533;28;20684;-91
2022/01/28 14:09:05;;;;;;;5.45;1.55;;;8.50;92.20;;;;;;5009313;28;20231;-91
2022/01/28 14:11:34;;;;;;;3.80;1.17;;;8.40;92.40;;;;;;5002243;28;20230;-91
2022/01/28 14:14:12;;;;;;;3.35;1.10;;;8.40;92.50;;;;;;5015194;28;20186;-91
2022/01/28 14:16:38;;;;;;;3.92;1.40;;;8.30;92.30;;;;;;5013010;28;20206;-91
2022/01/28 14:19:04;;;;;;;3.53;1.30;;;8.30;92.60;;;;;;5010747;28;20742;-90
2022/01/28 14:21:30;;;;;;;4.20;1.07;;;8.30;92.70;;;;;;5010659;28;20243;-91
2022/01/28 14:23:56;;;;;;;1.87;1.13;;;8.30;92.60;;;;;;5010803;28;20179;-90
2022/01/28 14:26:22;;;;;;;3.57;1.23;;;8.30;92.60;;;;;;5008803;28;20211;-90
2022/01/28 14:31:23;;;;;;;4.97;1.35;;;8.30;92.70;;;;;;5007453;28;20674;-91
2022/01/28 14:33:49;;;;;;;4.30;1.20;;;8.30;92.60;;;;;;5010930;28;20543;-89
2022/01/28 14:36:16;;;;;;;1.88;1.10;;;8.30;92.50;;;;;;5008379;28;20211;-90
2022/01/28 14:38:46;;;;;;;3.25;1.80;;;8.30;92.50;;;;;;5005795;28;20179;-90
2022/01/28 14:41:12;;;;;;;5.78;2.42;;;8.30;92.80;;;;;;5009605;28;20735;-91
2022/01/28 14:43:38;;;;;;;1.23;1.00;;;8.30;92.80;;;;;;5008950;28;20285;-90